sensor_id;sensor_type;location;lat;lon;timestamp;P1;durP1;ratioP1;P2;durP2;ratioP2
77117;SDS011;66072;50.238;19.228;2024-03-02T00:01:11;53.10;;;27.30;;
77117;SDS011;66072;50.238;19.228;2024-03-02T00:03:45;48.30;;;26.00;;
77117;SDS011;66072;50.238;19.228;2024-03-02T00:06:13;47.50;;;26.20;;
77117;SDS011;66072;50.238;19.228;2024-03-02T00:08:41;48.50;;;26.70;;
77117;SDS011;66072;50.238;19.228;2024-03-02T00:11:09;57.90;;;31.20;;
77117;SDS011;66072;50.238;19.228;2024-03-02T00:13:37;56.30;;;30.50;;
77117;SDS011;66072;50.238;19.228;2024-03-02T00:16:05;54.30;;;28.80;;
77117;SDS011;66072;50.238;19.228;2024-03-02T00:18:34;60.90;;;32.40;;
77117;SDS011;66072;50.238;19.228;2024-03-02T00:21:03;61.00;;;30.40;;
77117;SDS011;66072;50.238;19.228;2024-03-02T00:26:01;53.10;;;29.00;;
77117;SDS011;66072;50.238;19.228;2024-03-02T00:28:31;51.50;;;29.40;;
77117;SDS011;66072;50.238;19.228;2024-03-02T00:31:10;53.90;;;30.70;;
77117;SDS011;66072;50.238;19.228;2024-03-02T00:33:43;47.80;;;28.10;;
77117;SDS011;66072;50.238;19.228;2024-03-02T00:36:15;50.50;;;27.10;;
77117;SDS011;66072;50.238;19.228;2024-03-02T00:38:48;51.20;;;30.00;;
77117;SDS011;66072;50.238;19.228;2024-03-02T00:41:19;45.20;;;25.60;;
77117;SDS011;66072;50.238;19.228;2024-03-02T00:46:30;45.40;;;26.40;;
77117;SDS011;66072;50.238;19.228;2024-03-02T00:49:17;46.20;;;25.60;;
77117;SDS011;66072;50.238;19.228;2024-03-02T00:51:46;40.80;;;23.10;;
77117;SDS011;66072;50.238;19.228;2024-03-02T00:54:15;47.50;;;25.80;;
77117;SDS011;66072;50.238;19.228;2024-03-02T00:56:46;49.00;;;25.90;;
77117;SDS011;66072;50.238;19.228;2024-03-02T00:59:14;44.90;;;24.60;;
77117;SDS011;66072;50.238;19.228;2024-03-02T01:01:42;49.60;;;28.40;;
77117;SDS011;66072;50.238;19.228;2024-03-02T01:04:10;44.70;;;25.20;;
77117;SDS011;66072;50.238;19.228;2024-03-02T01:06:38;41.80;;;24.20;;
77117;SDS011;66072;50.238;19.228;2024-03-02T01:09:06;44.20;;;24.50;;
77117;SDS011;66072;50.238;19.228;2024-03-02T01:11:34;41.70;;;24.20;;
77117;SDS011;66072;50.238;19.228;2024-03-02T01:14:02;43.10;;;24.80;;
77117;SDS011;66072;50.238;19.228;2024-03-02T01:16:29;43.60;;;24.40;;
77117;SDS011;66072;50.238;19.228;2024-03-02T01:18:57;43.20;;;24.50;;
77117;SDS011;66072;50.238;19.228;2024-03-02T01:21:25;45.10;;;24.40;;
77117;SDS011;66072;50.238;19.228;2024-03-02T01:23:53;45.60;;;25.30;;
77117;SDS011;66072;50.238;19.228;2024-03-02T01:26:21;44.90;;;25.40;;
77117;SDS011;66072;50.238;19.228;2024-03-02T01:28:48;45.60;;;25.40;;
77117;SDS011;66072;50.238;19.228;2024-03-02T01:31:16;43.30;;;26.00;;
77117;SDS011;66072;50.238;19.228;2024-03-02T01:33:44;46.90;;;26.60;;
77117;SDS011;66072;50.238;19.228;2024-03-02T01:36:12;47.40;;;26.90;;
77117;SDS011;66072;50.238;19.228;2024-03-02T01:38:39;47.90;;;26.80;;
77117;SDS011;66072;50.238;19.228;2024-03-02T01:41:07;44.50;;;26.00;;
77117;SDS011;66072;50.238;19.228;2024-03-02T01:43:35;45.90;;;26.70;;
77117;SDS011;66072;50.238;19.228;2024-03-02T01:46:07;43.10;;;24.50;;
77117;SDS011;66072;50.238;19.228;2024-03-02T01:48:35;45.30;;;25.70;;
77117;SDS011;66072;50.238;19.228;2024-03-02T01:51:03;48.90;;;25.70;;
77117;SDS011;66072;50.238;19.228;2024-03-02T01:53:31;43.10;;;25.00;;
77117;SDS011;66072;50.238;19.228;2024-03-02T01:55:59;38.00;;;21.40;;
77117;SDS011;66072;50.238;19.228;2024-03-02T01:58:26;45.30;;;26.20;;
77117;SDS011;66072;50.238;19.228;2024-03-02T02:00:54;47.00;;;27.40;;
77117;SDS011;66072;50.238;19.228;2024-03-02T02:03:22;45.30;;;25.90;;
77117;SDS011;66072;50.238;19.228;2024-03-02T02:05:50;47.50;;;27.20;;
77117;SDS011;66072;50.238;19.228;2024-03-02T02:08:18;45.70;;;25.80;;
77117;SDS011;66072;50.238;19.228;2024-03-02T02:10:46;46.30;;;26.40;;
77117;SDS011;66072;50.238;19.228;2024-03-02T02:13:13;46.60;;;27.30;;
77117;SDS011;66072;50.238;19.228;2024-03-02T02:15:41;44.30;;;24.70;;
77117;SDS011;66072;50.238;19.228;2024-03-02T02:18:09;41.20;;;26.40;;
77117;SDS011;66072;50.238;19.228;2024-03-02T02:20:36;44.50;;;24.30;;
77117;SDS011;66072;50.238;19.228;2024-03-02T02:23:04;43.90;;;26.30;;
77117;SDS011;66072;50.238;19.228;2024-03-02T02:25:32;45.90;;;28.00;;
77117;SDS011;66072;50.238;19.228;2024-03-02T02:28:00;48.00;;;25.10;;
77117;SDS011;66072;50.238;19.228;2024-03-02T02:30:29;44.00;;;26.70;;
77117;SDS011;66072;50.238;19.228;2024-03-02T02:32:58;41.10;;;26.00;;
77117;SDS011;66072;50.238;19.228;2024-03-02T02:35:26;45.10;;;26.90;;
77117;SDS011;66072;50.238;19.228;2024-03-02T02:37:54;43.00;;;26.40;;
77117;SDS011;66072;50.238;19.228;2024-03-02T02:40:23;38.70;;;24.50;;
77117;SDS011;66072;50.238;19.228;2024-03-02T02:42:51;44.50;;;25.10;;
77117;SDS011;66072;50.238;19.228;2024-03-02T02:45:20;43.90;;;25.20;;
77117;SDS011;66072;50.238;19.228;2024-03-02T02:47:48;45.70;;;25.70;;
77117;SDS011;66072;50.238;19.228;2024-03-02T02:50:16;40.10;;;26.60;;
77117;SDS011;66072;50.238;19.228;2024-03-02T02:52:44;38.50;;;24.90;;
77117;SDS011;66072;50.238;19.228;2024-03-02T02:55:12;44.90;;;27.70;;
77117;SDS011;66072;50.238;19.228;2024-03-02T02:57:41;46.40;;;27.80;;
77117;SDS011;66072;50.238;19.228;2024-03-02T03:02:40;54.40;;;31.70;;
77117;SDS011;66072;50.238;19.228;2024-03-02T03:05:10;54.30;;;32.50;;
77117;SDS011;66072;50.238;19.228;2024-03-02T03:07:42;47.20;;;30.30;;
77117;SDS011;66072;50.238;19.228;2024-03-02T03:10:10;54.80;;;32.70;;
77117;SDS011;66072;50.238;19.228;2024-03-02T03:12:38;54.00;;;34.00;;
77117;SDS011;66072;50.238;19.228;2024-03-02T03:15:06;54.90;;;34.30;;
77117;SDS011;66072;50.238;19.228;2024-03-02T03:17:34;47.90;;;28.60;;
77117;SDS011;66072;50.238;19.228;2024-03-02T03:20:02;41.50;;;25.00;;
77117;SDS011;66072;50.238;19.228;2024-03-02T03:22:30;41.70;;;24.00;;
77117;SDS011;66072;50.238;19.228;2024-03-02T03:24:58;42.20;;;24.70;;
77117;SDS011;66072;50.238;19.228;2024-03-02T03:27:26;38.00;;;23.80;;
77117;SDS011;66072;50.238;19.228;2024-03-02T03:29:55;39.30;;;23.70;;
77117;SDS011;66072;50.238;19.228;2024-03-02T03:32:22;46.90;;;24.90;;
77117;SDS011;66072;50.238;19.228;2024-03-02T03:34:50;42.60;;;23.70;;
77117;SDS011;66072;50.238;19.228;2024-03-02T03:37:18;44.20;;;25.70;;
77117;SDS011;66072;50.238;19.228;2024-03-02T03:39:46;45.60;;;26.40;;
77117;SDS011;66072;50.238;19.228;2024-03-02T03:42:13;46.90;;;28.00;;
77117;SDS011;66072;50.238;19.228;2024-03-02T03:44:41;52.70;;;31.30;;
77117;SDS011;66072;50.238;19.228;2024-03-02T03:47:09;45.30;;;26.20;;
77117;SDS011;66072;50.238;19.228;2024-03-02T03:49:37;46.30;;;26.00;;
77117;SDS011;66072;50.238;19.228;2024-03-02T03:52:05;38.50;;;22.10;;
77117;SDS011;66072;50.238;19.228;2024-03-02T03:54:33;40.40;;;22.10;;
77117;SDS011;66072;50.238;19.228;2024-03-02T03:57:01;33.10;;;20.80;;
77117;SDS011;66072;50.238;19.228;2024-03-02T03:59:28;33.40;;;21.20;;
77117;SDS011;66072;50.238;19.228;2024-03-02T04:01:56;35.00;;;21.70;;
77117;SDS011;66072;50.238;19.228;2024-03-02T04:04:24;38.00;;;21.60;;
77117;SDS011;66072;50.238;19.228;2024-03-02T04:06:51;39.20;;;22.50;;
77117;SDS011;66072;50.238;19.228;2024-03-02T04:09:19;44.80;;;24.00;;
77117;SDS011;66072;50.238;19.228;2024-03-02T04:11:47;39.90;;;23.40;;
77117;SDS011;66072;50.238;19.228;2024-03-02T04:14:15;41.50;;;24.20;;
77117;SDS011;66072;50.238;19.228;2024-03-02T04:16:43;39.10;;;21.80;;
77117;SDS011;66072;50.238;19.228;2024-03-02T04:19:10;36.80;;;22.40;;
77117;SDS011;66072;50.238;19.228;2024-03-02T04:21:38;43.70;;;24.30;;
77117;SDS011;66072;50.238;19.228;2024-03-02T04:24:06;42.80;;;24.00;;
77117;SDS011;66072;50.238;19.228;2024-03-02T04:26:34;40.70;;;24.30;;
77117;SDS011;66072;50.238;19.228;2024-03-02T04:29:01;39.60;;;25.20;;
77117;SDS011;66072;50.238;19.228;2024-03-02T04:31:29;40.30;;;24.10;;
77117;SDS011;66072;50.238;19.228;2024-03-02T04:33:57;42.40;;;23.30;;
77117;SDS011;66072;50.238;19.228;2024-03-02T04:36:25;39.80;;;24.30;;
77117;SDS011;66072;50.238;19.228;2024-03-02T04:38:53;35.70;;;22.90;;
77117;SDS011;66072;50.238;19.228;2024-03-02T04:41:20;38.60;;;22.50;;
77117;SDS011;66072;50.238;19.228;2024-03-02T04:43:48;41.60;;;23.90;;
77117;SDS011;66072;50.238;19.228;2024-03-02T04:46:16;37.70;;;22.20;;
77117;SDS011;66072;50.238;19.228;2024-03-02T04:48:44;34.40;;;21.50;;
77117;SDS011;66072;50.238;19.228;2024-03-02T04:51:11;36.90;;;23.70;;
77117;SDS011;66072;50.238;19.228;2024-03-02T04:53:39;39.50;;;23.70;;
77117;SDS011;66072;50.238;19.228;2024-03-02T04:56:07;38.40;;;23.10;;
77117;SDS011;66072;50.238;19.228;2024-03-02T04:58:34;38.10;;;21.90;;
77117;SDS011;66072;50.238;19.228;2024-03-02T05:01:02;40.20;;;23.90;;
77117;SDS011;66072;50.238;19.228;2024-03-02T05:03:30;38.80;;;25.00;;
77117;SDS011;66072;50.238;19.228;2024-03-02T05:05:59;38.40;;;21.90;;
77117;SDS011;66072;50.238;19.228;2024-03-02T05:08:27;37.90;;;22.80;;
77117;SDS011;66072;50.238;19.228;2024-03-02T05:10:54;40.40;;;22.40;;
77117;SDS011;66072;50.238;19.228;2024-03-02T05:13:22;42.50;;;21.70;;
77117;SDS011;66072;50.238;19.228;2024-03-02T05:15:50;37.10;;;21.50;;
77117;SDS011;66072;50.238;19.228;2024-03-02T05:18:17;33.60;;;21.10;;
77117;SDS011;66072;50.238;19.228;2024-03-02T05:20:45;32.70;;;21.50;;
77117;SDS011;66072;50.238;19.228;2024-03-02T05:23:13;35.50;;;21.90;;
77117;SDS011;66072;50.238;19.228;2024-03-02T05:25:41;40.10;;;21.90;;
77117;SDS011;66072;50.238;19.228;2024-03-02T05:28:08;45.20;;;22.90;;
77117;SDS011;66072;50.238;19.228;2024-03-02T05:30:36;37.20;;;23.20;;
77117;SDS011;66072;50.238;19.228;2024-03-02T05:33:04;34.30;;;21.10;;
77117;SDS011;66072;50.238;19.228;2024-03-02T05:35:32;33.10;;;22.10;;
77117;SDS011;66072;50.238;19.228;2024-03-02T05:38:00;41.90;;;24.00;;
77117;SDS011;66072;50.238;19.228;2024-03-02T05:40:27;39.10;;;22.30;;
77117;SDS011;66072;50.238;19.228;2024-03-02T05:42:55;35.70;;;23.00;;
77117;SDS011;66072;50.238;19.228;2024-03-02T05:45:23;39.80;;;23.00;;
77117;SDS011;66072;50.238;19.228;2024-03-02T05:47:51;39.00;;;23.20;;
77117;SDS011;66072;50.238;19.228;2024-03-02T05:50:19;34.40;;;21.90;;
77117;SDS011;66072;50.238;19.228;2024-03-02T05:52:46;36.00;;;22.30;;
77117;SDS011;66072;50.238;19.228;2024-03-02T05:55:14;38.30;;;22.90;;
77117;SDS011;66072;50.238;19.228;2024-03-02T05:57:42;37.80;;;22.90;;
77117;SDS011;66072;50.238;19.228;2024-03-02T06:00:10;38.20;;;24.20;;
77117;SDS011;66072;50.238;19.228;2024-03-02T06:02:39;41.50;;;24.40;;
77117;SDS011;66072;50.238;19.228;2024-03-02T06:05:07;42.20;;;24.60;;
77117;SDS011;66072;50.238;19.228;2024-03-02T06:07:35;40.40;;;24.30;;
77117;SDS011;66072;50.238;19.228;2024-03-02T06:10:03;38.90;;;23.10;;
77117;SDS011;66072;50.238;19.228;2024-03-02T06:12:31;37.60;;;22.50;;
77117;SDS011;66072;50.238;19.228;2024-03-02T06:14:59;35.00;;;22.20;;
77117;SDS011;66072;50.238;19.228;2024-03-02T06:17:27;39.20;;;24.50;;
77117;SDS011;66072;50.238;19.228;2024-03-02T06:19:55;38.60;;;22.80;;
77117;SDS011;66072;50.238;19.228;2024-03-02T06:22:23;35.90;;;22.10;;
77117;SDS011;66072;50.238;19.228;2024-03-02T06:24:51;37.50;;;22.90;;
77117;SDS011;66072;50.238;19.228;2024-03-02T06:27:18;34.20;;;20.90;;
77117;SDS011;66072;50.238;19.228;2024-03-02T06:29:46;36.50;;;23.60;;
77117;SDS011;66072;50.238;19.228;2024-03-02T06:32:14;36.70;;;23.80;;
77117;SDS011;66072;50.238;19.228;2024-03-02T06:34:41;41.20;;;23.70;;
77117;SDS011;66072;50.238;19.228;2024-03-02T06:37:09;36.60;;;22.90;;
77117;SDS011;66072;50.238;19.228;2024-03-02T06:39:37;38.20;;;23.20;;
77117;SDS011;66072;50.238;19.228;2024-03-02T06:42:05;43.70;;;25.00;;
77117;SDS011;66072;50.238;19.228;2024-03-02T06:44:32;38.90;;;25.60;;
77117;SDS011;66072;50.238;19.228;2024-03-02T06:47:01;49.40;;;27.30;;
77117;SDS011;66072;50.238;19.228;2024-03-02T06:49:29;46.10;;;27.50;;
77117;SDS011;66072;50.238;19.228;2024-03-02T06:51:57;45.50;;;28.50;;
77117;SDS011;66072;50.238;19.228;2024-03-02T06:54:24;45.00;;;27.40;;
77117;SDS011;66072;50.238;19.228;2024-03-02T06:56:52;41.60;;;25.30;;
77117;SDS011;66072;50.238;19.228;2024-03-02T06:59:20;44.80;;;27.90;;
77117;SDS011;66072;50.238;19.228;2024-03-02T07:01:47;46.10;;;26.80;;
77117;SDS011;66072;50.238;19.228;2024-03-02T07:04:15;44.00;;;27.00;;
77117;SDS011;66072;50.238;19.228;2024-03-02T07:06:43;46.40;;;27.30;;
77117;SDS011;66072;50.238;19.228;2024-03-02T07:09:11;43.70;;;27.30;;
77117;SDS011;66072;50.238;19.228;2024-03-02T07:11:39;45.10;;;28.10;;
77117;SDS011;66072;50.238;19.228;2024-03-02T07:14:07;50.90;;;27.50;;
77117;SDS011;66072;50.238;19.228;2024-03-02T07:16:36;50.10;;;28.60;;
77117;SDS011;66072;50.238;19.228;2024-03-02T07:19:04;46.40;;;28.60;;
77117;SDS011;66072;50.238;19.228;2024-03-02T07:21:32;41.20;;;25.50;;
77117;SDS011;66072;50.238;19.228;2024-03-02T07:24:00;44.70;;;25.70;;
77117;SDS011;66072;50.238;19.228;2024-03-02T07:26:28;45.00;;;25.90;;
77117;SDS011;66072;50.238;19.228;2024-03-02T07:29:00;43.20;;;27.50;;
77117;SDS011;66072;50.238;19.228;2024-03-02T07:31:28;43.30;;;26.90;;
77117;SDS011;66072;50.238;19.228;2024-03-02T07:33:56;42.70;;;26.10;;
77117;SDS011;66072;50.238;19.228;2024-03-02T07:36:24;45.80;;;26.90;;
77117;SDS011;66072;50.238;19.228;2024-03-02T07:38:52;39.70;;;27.50;;
77117;SDS011;66072;50.238;19.228;2024-03-02T07:41:19;40.10;;;28.80;;
77117;SDS011;66072;50.238;19.228;2024-03-02T07:43:47;41.10;;;27.00;;
77117;SDS011;66072;50.238;19.228;2024-03-02T07:46:15;45.90;;;27.40;;
77117;SDS011;66072;50.238;19.228;2024-03-02T07:48:42;39.70;;;25.20;;
77117;SDS011;66072;50.238;19.228;2024-03-02T07:51:10;40.80;;;25.70;;
77117;SDS011;66072;50.238;19.228;2024-03-02T07:53:38;37.20;;;23.80;;
77117;SDS011;66072;50.238;19.228;2024-03-02T07:56:06;39.60;;;25.50;;
77117;SDS011;66072;50.238;19.228;2024-03-02T07:58:33;36.40;;;23.70;;
77117;SDS011;66072;50.238;19.228;2024-03-02T08:01:01;37.90;;;23.00;;
77117;SDS011;66072;50.238;19.228;2024-03-02T08:03:29;34.90;;;21.10;;
77117;SDS011;66072;50.238;19.228;2024-03-02T08:05:57;31.60;;;21.80;;
77117;SDS011;66072;50.238;19.228;2024-03-02T08:08:25;30.90;;;21.30;;
77117;SDS011;66072;50.238;19.228;2024-03-02T08:10:53;31.10;;;18.60;;
77117;SDS011;66072;50.238;19.228;2024-03-02T08:13:20;27.90;;;18.60;;
77117;SDS011;66072;50.238;19.228;2024-03-02T08:15:48;28.30;;;18.80;;
77117;SDS011;66072;50.238;19.228;2024-03-02T08:18:16;28.80;;;19.20;;
77117;SDS011;66072;50.238;19.228;2024-03-02T08:20:44;36.20;;;20.50;;
77117;SDS011;66072;50.238;19.228;2024-03-02T08:23:12;27.50;;;18.80;;
77117;SDS011;66072;50.238;19.228;2024-03-02T08:25:40;30.60;;;19.20;;
77117;SDS011;66072;50.238;19.228;2024-03-02T08:28:08;29.50;;;18.60;;
77117;SDS011;66072;50.238;19.228;2024-03-02T08:30:36;30.00;;;19.60;;
77117;SDS011;66072;50.238;19.228;2024-03-02T08:33:04;28.50;;;18.50;;
77117;SDS011;66072;50.238;19.228;2024-03-02T08:35:32;30.90;;;20.10;;
77117;SDS011;66072;50.238;19.228;2024-03-02T08:38:00;30.70;;;19.30;;
77117;SDS011;66072;50.238;19.228;2024-03-02T08:40:28;27.50;;;18.50;;
77117;SDS011;66072;50.238;19.228;2024-03-02T08:42:56;31.90;;;20.20;;
77117;SDS011;66072;50.238;19.228;2024-03-02T08:45:24;27.90;;;19.20;;
77117;SDS011;66072;50.238;19.228;2024-03-02T08:47:51;29.70;;;18.90;;
77117;SDS011;66072;50.238;19.228;2024-03-02T08:50:19;26.20;;;18.80;;
77117;SDS011;66072;50.238;19.228;2024-03-02T08:52:47;27.20;;;17.10;;
77117;SDS011;66072;50.238;19.228;2024-03-02T08:55:15;33.00;;;19.60;;
77117;SDS011;66072;50.238;19.228;2024-03-02T08:57:42;29.10;;;19.70;;
77117;SDS011;66072;50.238;19.228;2024-03-02T09:00:10;30.70;;;20.80;;
77117;SDS011;66072;50.238;19.228;2024-03-02T09:02:38;32.70;;;21.20;;
77117;SDS011;66072;50.238;19.228;2024-03-02T09:05:06;30.40;;;19.70;;
77117;SDS011;66072;50.238;19.228;2024-03-02T09:07:35;30.90;;;21.10;;
77117;SDS011;66072;50.238;19.228;2024-03-02T09:10:02;31.60;;;19.70;;
77117;SDS011;66072;50.238;19.228;2024-03-02T09:12:30;29.40;;;19.10;;
77117;SDS011;66072;50.238;19.228;2024-03-02T09:14:59;32.50;;;20.20;;
77117;SDS011;66072;50.238;19.228;2024-03-02T09:17:28;29.10;;;20.10;;
77117;SDS011;66072;50.238;19.228;2024-03-02T09:19:56;32.40;;;20.70;;
77117;SDS011;66072;50.238;19.228;2024-03-02T09:22:24;29.50;;;19.30;;
77117;SDS011;66072;50.238;19.228;2024-03-02T09:24:52;30.60;;;18.80;;
77117;SDS011;66072;50.238;19.228;2024-03-02T09:27:19;32.00;;;20.10;;
77117;SDS011;66072;50.238;19.228;2024-03-02T09:29:48;28.80;;;19.90;;
77117;SDS011;66072;50.238;19.228;2024-03-02T09:32:15;30.30;;;20.70;;
77117;SDS011;66072;50.238;19.228;2024-03-02T09:34:43;32.80;;;21.50;;
77117;SDS011;66072;50.238;19.228;2024-03-02T09:37:11;29.60;;;19.30;;
77117;SDS011;66072;50.238;19.228;2024-03-02T09:39:38;38.60;;;22.30;;
77117;SDS011;66072;50.238;19.228;2024-03-02T09:42:07;31.30;;;21.50;;
77117;SDS011;66072;50.238;19.228;2024-03-02T09:44:35;28.30;;;21.00;;
77117;SDS011;66072;50.238;19.228;2024-03-02T09:47:02;38.10;;;21.80;;
77117;SDS011;66072;50.238;19.228;2024-03-02T09:49:30;33.60;;;23.00;;
77117;SDS011;66072;50.238;19.228;2024-03-02T09:51:58;36.60;;;25.00;;
77117;SDS011;66072;50.238;19.228;2024-03-02T09:54:26;36.00;;;24.30;;
77117;SDS011;66072;50.238;19.228;2024-03-02T09:56:54;41.20;;;25.40;;
77117;SDS011;66072;50.238;19.228;2024-03-02T09:59:22;38.70;;;25.80;;
77117;SDS011;66072;50.238;19.228;2024-03-02T10:01:56;38.20;;;25.60;;
77117;SDS011;66072;50.238;19.228;2024-03-02T10:04:29;36.40;;;24.30;;
77117;SDS011;66072;50.238;19.228;2024-03-02T10:09:38;38.70;;;25.70;;
77117;SDS011;66072;50.238;19.228;2024-03-02T10:12:07;41.70;;;25.80;;
77117;SDS011;66072;50.238;19.228;2024-03-02T10:14:36;35.00;;;23.30;;
77117;SDS011;66072;50.238;19.228;2024-03-02T10:17:13;28.00;;;19.70;;
77117;SDS011;66072;50.238;19.228;2024-03-02T10:19:41;30.00;;;17.90;;
77117;SDS011;66072;50.238;19.228;2024-03-02T10:22:09;25.60;;;15.90;;
77117;SDS011;66072;50.238;19.228;2024-03-02T10:27:14;28.90;;;17.40;;
77117;SDS011;66072;50.238;19.228;2024-03-02T10:29:53;23.00;;;16.40;;
77117;SDS011;66072;50.238;19.228;2024-03-02T10:32:22;25.80;;;17.50;;
77117;SDS011;66072;50.238;19.228;2024-03-02T10:34:50;25.90;;;16.80;;
77117;SDS011;66072;50.238;19.228;2024-03-02T10:37:18;24.10;;;16.70;;
77117;SDS011;66072;50.238;19.228;2024-03-02T10:39:48;27.00;;;18.00;;
77117;SDS011;66072;50.238;19.228;2024-03-02T10:42:16;28.20;;;17.50;;
77117;SDS011;66072;50.238;19.228;2024-03-02T10:44:46;22.60;;;15.50;;
77117;SDS011;66072;50.238;19.228;2024-03-02T10:47:16;24.10;;;15.60;;
77117;SDS011;66072;50.238;19.228;2024-03-02T10:49:47;23.00;;;17.10;;
77117;SDS011;66072;50.238;19.228;2024-03-02T10:52:18;25.30;;;14.70;;
77117;SDS011;66072;50.238;19.228;2024-03-02T10:54:46;27.60;;;15.90;;
77117;SDS011;66072;50.238;19.228;2024-03-02T10:57:14;23.30;;;15.60;;
77117;SDS011;66072;50.238;19.228;2024-03-02T10:59:51;28.20;;;18.50;;
77117;SDS011;66072;50.238;19.228;2024-03-02T11:02:21;28.80;;;18.80;;
77117;SDS011;66072;50.238;19.228;2024-03-02T11:04:51;30.10;;;20.90;;
77117;SDS011;66072;50.238;19.228;2024-03-02T11:07:22;28.40;;;19.30;;
77117;SDS011;66072;50.238;19.228;2024-03-02T11:09:54;27.60;;;19.80;;
77117;SDS011;66072;50.238;19.228;2024-03-02T11:12:31;29.70;;;18.80;;
77117;SDS011;66072;50.238;19.228;2024-03-02T11:15:10;26.70;;;16.80;;
77117;SDS011;66072;50.238;19.228;2024-03-02T11:17:42;28.40;;;19.80;;
77117;SDS011;66072;50.238;19.228;2024-03-02T11:20:11;28.50;;;18.20;;
77117;SDS011;66072;50.238;19.228;2024-03-02T11:22:39;24.70;;;16.30;;
77117;SDS011;66072;50.238;19.228;2024-03-02T11:25:22;26.50;;;16.50;;
77117;SDS011;66072;50.238;19.228;2024-03-02T11:33:03;27.10;;;18.20;;
77117;SDS011;66072;50.238;19.228;2024-03-02T11:35:36;30.90;;;20.60;;
77117;SDS011;66072;50.238;19.228;2024-03-02T11:38:04;27.80;;;18.10;;
77117;SDS011;66072;50.238;19.228;2024-03-02T11:40:34;26.80;;;19.10;;
77117;SDS011;66072;50.238;19.228;2024-03-02T11:43:02;23.20;;;17.20;;
77117;SDS011;66072;50.238;19.228;2024-03-02T11:45:32;30.50;;;18.10;;
77117;SDS011;66072;50.238;19.228;2024-03-02T11:48:00;29.80;;;18.80;;
77117;SDS011;66072;50.238;19.228;2024-03-02T11:50:49;29.30;;;20.90;;
77117;SDS011;66072;50.238;19.228;2024-03-02T11:53:20;29.10;;;19.70;;
77117;SDS011;66072;50.238;19.228;2024-03-02T11:55:48;30.80;;;19.50;;
77117;SDS011;66072;50.238;19.228;2024-03-02T11:58:17;32.90;;;20.70;;
77117;SDS011;66072;50.238;19.228;2024-03-02T12:00:44;31.40;;;20.80;;
77117;SDS011;66072;50.238;19.228;2024-03-02T12:03:13;30.60;;;20.90;;
77117;SDS011;66072;50.238;19.228;2024-03-02T12:05:42;31.60;;;21.10;;
77117;SDS011;66072;50.238;19.228;2024-03-02T12:08:11;33.40;;;22.10;;
77117;SDS011;66072;50.238;19.228;2024-03-02T12:10:39;31.00;;;21.60;;
77117;SDS011;66072;50.238;19.228;2024-03-02T12:13:07;35.40;;;22.30;;
77117;SDS011;66072;50.238;19.228;2024-03-02T12:15:35;33.80;;;22.00;;
77117;SDS011;66072;50.238;19.228;2024-03-02T12:18:04;34.40;;;22.10;;
77117;SDS011;66072;50.238;19.228;2024-03-02T12:20:33;35.80;;;22.90;;
77117;SDS011;66072;50.238;19.228;2024-03-02T12:23:01;35.30;;;23.40;;
77117;SDS011;66072;50.238;19.228;2024-03-02T12:25:31;29.80;;;21.60;;
77117;SDS011;66072;50.238;19.228;2024-03-02T12:28:00;33.90;;;24.10;;
77117;SDS011;66072;50.238;19.228;2024-03-02T12:30:29;33.60;;;22.80;;
77117;SDS011;66072;50.238;19.228;2024-03-02T12:32:58;37.80;;;24.80;;
77117;SDS011;66072;50.238;19.228;2024-03-02T12:35:27;32.50;;;21.60;;
77117;SDS011;66072;50.238;19.228;2024-03-02T12:37:55;33.50;;;22.40;;
77117;SDS011;66072;50.238;19.228;2024-03-02T12:40:22;32.50;;;21.60;;
77117;SDS011;66072;50.238;19.228;2024-03-02T12:42:51;38.00;;;24.30;;
77117;SDS011;66072;50.238;19.228;2024-03-02T12:45:19;29.20;;;19.10;;
77117;SDS011;66072;50.238;19.228;2024-03-02T12:47:47;28.40;;;19.00;;
77117;SDS011;66072;50.238;19.228;2024-03-02T12:50:15;29.30;;;17.70;;
77117;SDS011;66072;50.238;19.228;2024-03-02T12:52:43;28.50;;;16.80;;
77117;SDS011;66072;50.238;19.228;2024-03-02T12:55:11;26.50;;;16.60;;
77117;SDS011;66072;50.238;19.228;2024-03-02T12:57:39;25.50;;;15.80;;
77117;SDS011;66072;50.238;19.228;2024-03-02T13:00:11;24.50;;;16.70;;
77117;SDS011;66072;50.238;19.228;2024-03-02T13:02:40;28.70;;;17.50;;
77117;SDS011;66072;50.238;19.228;2024-03-02T13:05:08;28.00;;;16.80;;
77117;SDS011;66072;50.238;19.228;2024-03-02T13:07:36;26.10;;;16.90;;
77117;SDS011;66072;50.238;19.228;2024-03-02T13:10:08;28.50;;;16.90;;
77117;SDS011;66072;50.238;19.228;2024-03-02T13:12:37;29.80;;;18.30;;
77117;SDS011;66072;50.238;19.228;2024-03-02T13:15:05;25.60;;;16.60;;
77117;SDS011;66072;50.238;19.228;2024-03-02T13:17:36;31.80;;;17.10;;
77117;SDS011;66072;50.238;19.228;2024-03-02T13:20:05;27.70;;;17.80;;
77117;SDS011;66072;50.238;19.228;2024-03-02T13:22:34;30.30;;;18.30;;
77117;SDS011;66072;50.238;19.228;2024-03-02T13:25:02;25.50;;;16.80;;
77117;SDS011;66072;50.238;19.228;2024-03-02T13:27:30;23.60;;;16.40;;
77117;SDS011;66072;50.238;19.228;2024-03-02T13:29:59;28.20;;;17.10;;
77117;SDS011;66072;50.238;19.228;2024-03-02T13:32:27;24.20;;;16.60;;
77117;SDS011;66072;50.238;19.228;2024-03-02T13:34:55;29.90;;;18.40;;
77117;SDS011;66072;50.238;19.228;2024-03-02T13:37:22;28.40;;;17.50;;
77117;SDS011;66072;50.238;19.228;2024-03-02T13:39:50;24.40;;;16.10;;
77117;SDS011;66072;50.238;19.228;2024-03-02T13:42:18;27.80;;;17.00;;
77117;SDS011;66072;50.238;19.228;2024-03-02T13:44:46;29.20;;;17.50;;
77117;SDS011;66072;50.238;19.228;2024-03-02T13:47:14;26.30;;;17.40;;
77117;SDS011;66072;50.238;19.228;2024-03-02T13:49:41;26.00;;;18.70;;
77117;SDS011;66072;50.238;19.228;2024-03-02T13:52:09;27.80;;;17.60;;
77117;SDS011;66072;50.238;19.228;2024-03-02T13:54:38;26.40;;;17.10;;
77117;SDS011;66072;50.238;19.228;2024-03-02T13:57:09;21.90;;;14.00;;
77117;SDS011;66072;50.238;19.228;2024-03-02T13:59:38;23.90;;;14.50;;
77117;SDS011;66072;50.238;19.228;2024-03-02T14:02:06;21.40;;;13.60;;
77117;SDS011;66072;50.238;19.228;2024-03-02T14:04:34;20.40;;;14.50;;
77117;SDS011;66072;50.238;19.228;2024-03-02T14:07:02;20.90;;;13.60;;
77117;SDS011;66072;50.238;19.228;2024-03-02T14:09:31;18.80;;;13.40;;
77117;SDS011;66072;50.238;19.228;2024-03-02T14:11:58;17.30;;;11.70;;
77117;SDS011;66072;50.238;19.228;2024-03-02T14:14:26;23.50;;;14.70;;
77117;SDS011;66072;50.238;19.228;2024-03-02T14:16:54;26.30;;;17.70;;
77117;SDS011;66072;50.238;19.228;2024-03-02T14:19:22;20.00;;;14.60;;
77117;SDS011;66072;50.238;19.228;2024-03-02T14:21:50;19.90;;;13.40;;
77117;SDS011;66072;50.238;19.228;2024-03-02T14:24:18;20.50;;;14.40;;
77117;SDS011;66072;50.238;19.228;2024-03-02T14:26:45;20.90;;;13.50;;
77117;SDS011;66072;50.238;19.228;2024-03-02T14:29:13;23.10;;;16.20;;
77117;SDS011;66072;50.238;19.228;2024-03-02T14:31:41;20.90;;;15.20;;
77117;SDS011;66072;50.238;19.228;2024-03-02T14:34:09;22.80;;;14.70;;